Time;durP1;ratioP1;P1;durP2;ratioP2;P2;SDS_P1;SDS_P2;PMS_P1;PMS_P2;Temp;Humidity;BMP_temperature;BMP_pressure;BME280_temperature;BME280_humidity;BME280_pressure;Samples;Min_cycle;Max_cycle;Signal;HPM_P1;HPM_P2
2024/03/14 00:00:50;;;;;;;;;;;;;;;19.46;47.97;101057.88;2065014;28;8466;-73
2024/03/14 00:01:51;;;;;;;;;;;;;;;19.46;47.99;101052.88;2067429;28;2040;-73
2024/03/14 00:02:53;;;;;;;;;;;;;;;19.46;48.10;101049.25;2067582;28;2172;-72
2024/03/14 00:03:54;;;;;;;;;;;;;;;19.45;48.05;101053.53;2067849;28;2188;-72
2024/03/14 00:04:58;;;;;;;;;;;;;;;19.45;48.09;101060.00;2065387;28;2071;-72
2024/03/14 00:06:01;;;;;;;;;;;;;;;19.45;48.07;101054.28;2068370;28;1673;-72
2024/03/14 00:07:02;;;;;;;;;;;;;;;19.46;48.11;101052.13;2067753;28;2091;-72
2024/03/14 00:08:04;;;;;;;;;;;;;;;19.46;48.02;101055.00;2067823;28;1761;-70
2024/03/14 00:09:08;;;;;;;;;;;;;;;19.45;48.08;101051.41;2067141;28;2173;-73
2024/03/14 00:10:09;;;;;;;;;;;;;;;19.46;48.22;101055.00;2067012;28;1904;-72
2024/03/14 00:11:11;;;;;;;;;;;;;;;19.45;48.08;101047.78;2066392;28;1858;-72
2024/03/14 00:12:13;;;;;;;;;;;;;;;19.45;48.04;101048.53;2067373;28;1798;-73
2024/03/14 00:13:15;;;;;;;;;;;;;;;19.44;48.13;101046.28;2066470;28;2223;-73
2024/03/14 00:14:17;;;;;;;;;;;;;;;19.45;48.08;101047.78;2068308;28;1803;-72
2024/03/14 00:15:20;;;;;;;;;;;;;;;19.46;48.06;101055.00;2068131;28;2147;-73
2024/03/14 00:16:21;;;;;;;;;;;;;;;19.45;48.08;101053.53;2065915;28;2135;-73
2024/03/14 00:17:22;;;;;;;;;;;;;;;19.45;48.14;101053.53;2066770;28;2198;-73
2024/03/14 00:18:25;;;;;;;;;;;;;;;19.45;48.09;101047.78;2065000;28;2443;-73
2024/03/14 00:19:26;;;;;;;;;;;;;;;19.44;48.11;101046.28;2065563;28;2332;-73
2024/03/14 00:20:28;;;;;;;;;;;;;;;19.44;48.22;101052.75;2067484;28;2178;-73
2024/03/14 00:21:29;;;;;;;;;;;;;;;19.43;48.19;101045.53;2066655;28;2074;-73
2024/03/14 00:22:30;;;;;;;;;;;;;;;19.44;48.19;101052.03;2065521;28;2154;-73
2024/03/14 00:23:32;;;;;;;;;;;;;;;19.43;48.18;101050.53;2066176;28;2107;-73
2024/03/14 00:24:34;;;;;;;;;;;;;;;19.43;48.21;101050.53;2067637;28;2150;-73
2024/03/14 00:25:35;;;;;;;;;;;;;;;19.45;48.04;101042.03;2065861;28;2626;-72
2024/03/14 00:26:37;;;;;;;;;;;;;;;19.44;48.05;101046.28;2068806;28;1694;-73
2024/03/14 00:27:38;;;;;;;;;;;;;;;19.44;48.13;101046.28;2067968;28;1664;-73
2024/03/14 00:28:40;;;;;;;;;;;;;;;19.42;48.24;101041.19;2066876;28;1797;-72
2024/03/14 00:29:41;;;;;;;;;;;;;;;19.43;48.18;101039.06;2067121;28;1955;-72
2024/03/14 00:30:43;;;;;;;;;;;;;;;19.43;48.20;101036.94;2066137;28;5969;-72
2024/03/14 00:31:45;;;;;;;;;;;;;;;19.43;48.30;101041.94;2066230;28;2138;-72
2024/03/14 00:32:46;;;;;;;;;;;;;;;19.42;48.19;101040.44;2067005;28;1728;-72
2024/03/14 00:33:48;;;;;;;;;;;;;;;19.41;48.14;101048.31;2067806;28;2094;-72
2024/03/14 00:34:49;;;;;;;;;;;;;;;19.41;48.25;101042.56;2066972;28;1624;-72
2024/03/14 00:35:50;;;;;;;;;;;;;;;19.42;48.17;101037.56;2068411;28;1692;-72
2024/03/14 00:36:53;;;;;;;;;;;;;;;19.42;48.02;101043.28;2066786;28;2149;-72
2024/03/14 00:37:54;;;;;;;;;;;;;;;19.41;48.06;101044.69;2069191;28;1709;-72
2024/03/14 00:38:56;;;;;;;;;;;;;;;19.42;48.17;101043.28;2068503;28;2102;-72
2024/03/14 00:39:57;;;;;;;;;;;;;;;19.41;48.18;101038.94;2067989;28;1672;-73
2024/03/14 00:40:59;;;;;;;;;;;;;;;19.41;48.19;101041.81;2067984;28;2023;-72
2024/03/14 00:42:00;;;;;;;;;;;;;;;19.41;48.27;101036.06;2066928;28;2305;-72
2024/03/14 00:43:02;;;;;;;;;;;;;;;19.41;48.20;101042.56;2066229;28;2406;-73
2024/03/14 00:44:03;;;;;;;;;;;;;;;19.41;48.27;101042.56;2065907;28;2209;-72
2024/03/14 00:45:06;;;;;;;;;;;;;;;19.40;48.15;101041.09;2065997;28;2150;-72
2024/03/14 00:46:10;;;;;;;;;;;;;;;19.40;48.18;101041.09;2065545;28;2103;-72
2024/03/14 00:47:12;;;;;;;;;;;;;;;19.40;48.20;101041.09;2067501;28;2091;-72
2024/03/14 00:48:13;;;;;;;;;;;;;;;19.41;48.24;101036.06;2065360;28;2197;-72
2024/03/14 00:49:15;;;;;;;;;;;;;;;19.40;48.22;101034.56;2066057;28;2165;-72
2024/03/14 00:50:19;;;;;;;;;;;;;;;19.41;48.22;101036.06;2067155;28;2150;-72
2024/03/14 00:51:20;;;;;;;;;;;;;;;19.40;48.26;101040.31;2066654;28;2190;-72
2024/03/14 00:52:21;;;;;;;;;;;;;;;19.41;48.23;101030.34;2066587;28;1702;-72
2024/03/14 00:53:23;;;;;;;;;;;;;;;19.40;48.23;101032.47;2067298;28;2179;-72
2024/03/14 00:54:24;;;;;;;;;;;;;;;19.39;48.24;101027.34;2066636;28;2228;-72
2024/03/14 00:55:26;;;;;;;;;;;;;;;19.39;48.13;101024.47;2067531;28;2130;-72
2024/03/14 00:56:30;;;;;;;;;;;;;;;19.40;48.32;101031.69;2066614;28;2008;-73
2024/03/14 00:57:32;;;;;;;;;;;;;;;19.40;48.18;101031.69;2070369;28;1657;-72
2024/03/14 00:58:35;;;;;;;;;;;;;;;19.39;48.16;101033.09;2067714;28;1641;-72
2024/03/14 00:59:36;;;;;;;;;;;;;;;19.40;48.19;101028.81;2064168;28;1989;-72
2024/03/14 01:00:38;;;;;;;;;;;;;;;19.39;48.18;101027.34;2065374;28;6255;-72
2024/03/14 01:01:43;;;;;;;;;;;;;;;19.40;48.12;101020.22;2067794;28;2106;-72
2024/03/14 01:02:44;;;;;;;;;;;;;;;19.39;48.18;101022.34;2068875;28;2134;-72
2024/03/14 01:03:46;;;;;;;;;;;;;;;19.39;48.23;101027.34;2068569;28;2158;-72
2024/03/14 01:04:50;;;;;;;;;;;;;;;19.39;48.26;101022.34;2066518;28;2146;-72
2024/03/14 01:05:51;;;;;;;;;;;;;;;19.39;48.22;101021.59;2066140;28;2151;-71
2024/03/14 01:06:52;;;;;;;;;;;;;;;19.39;48.32;101018.75;2067613;28;2389;-72
2024/03/14 01:07:54;;;;;;;;;;;;;;;19.39;48.29;101015.88;2067844;28;2445;-72
2024/03/14 01:08:55;;;;;;;;;;;;;;;19.38;48.25;101017.25;2066170;28;2070;-72
2024/03/14 01:09:57;;;;;;;;;;;;;;;19.38;48.22;101008.66;2067604;28;2217;-73
2024/03/14 01:10:58;;;;;;;;;;;;;;;19.39;48.21;101015.88;2066520;28;2268;-72
2024/03/14 01:11:59;;;;;;;;;;;;;;;19.38;48.15;101015.13;2068198;28;2707;-72
2024/03/14 01:13:01;;;;;;;;;;;;;;;19.37;48.11;101013.63;2067707;28;2126;-73
2024/03/14 01:14:02;;;;;;;;;;;;;;;19.36;48.25;101012.16;2065487;28;2193;-72
2024/03/14 01:15:06;;;;;;;;;;;;;;;19.37;48.29;101018.63;2065477;28;2164;-72
2024/03/14 01:16:08;;;;;;;;;;;;;;;19.37;48.30;101012.88;2068363;28;2134;-72
2024/03/14 01:17:09;;;;;;;;;;;;;;;19.37;48.28;101012.88;2068236;28;2222;-72
2024/03/14 01:18:10;;;;;;;;;;;;;;;19.37;48.30;101010.00;2068025;28;2234;-72
2024/03/14 01:19:12;;;;;;;;;;;;;;;19.37;48.25;101018.63;2067121;28;2161;-72
2024/03/14 01:20:16;;;;;;;;;;;;;;;19.36;48.26;101017.88;2068170;28;2138;-73
2024/03/14 01:21:20;;;;;;;;;;;;;;;19.36;48.19;101008.53;2066252;28;2277;-73
2024/03/14 01:22:22;;;;;;;;;;;;;;;19.37;48.26;101018.63;2068334;28;2159;-72
2024/03/14 01:23:23;;;;;;;;;;;;;;;19.35;48.23;101010.63;2067328;28;2181;-72
2024/03/14 01:24:25;;;;;;;;;;;;;;;19.36;48.22;101012.16;2065768;28;2217;-72
2024/03/14 01:25:26;;;;;;;;;;;;;;;19.36;48.17;101014.28;2066147;28;2186;-72
2024/03/14 01:26:28;;;;;;;;;;;;;;;19.35;48.26;101007.75;2066005;28;2186;-72
2024/03/14 01:27:30;;;;;;;;;;;;;;;19.35;48.31;101015.66;2069327;28;2265;-72
2024/03/14 01:28:31;;;;;;;;;;;;;;;19.35;48.21;101010.63;2069396;28;2095;-73
2024/03/14 01:29:33;;;;;;;;;;;;;;;19.36;48.21;101005.66;2068251;28;1714;-72
2024/03/14 01:30:34;;;;;;;;;;;;;;;19.34;48.23;101002.69;2067138;28;6347;-72
2024/03/14 01:31:36;;;;;;;;;;;;;;;19.34;48.31;101008.44;2066095;28;2186;-72
2024/03/14 01:32:37;;;;;;;;;;;;;;;19.35;48.35;101007.03;2065707;28;2139;-72
2024/03/14 01:33:38;;;;;;;;;;;;;;;19.35;48.25;101009.91;2066263;28;2186;-72
2024/03/14 01:34:40;;;;;;;;;;;;;;;19.35;48.29;101004.16;2066835;28;2417;-72
2024/03/14 01:35:41;;;;;;;;;;;;;;;19.34;48.14;101002.69;2065738;28;2051;-73
2024/03/14 01:36:43;;;;;;;;;;;;;;;19.35;48.34;100998.41;2066997;28;2377;-72
2024/03/14 01:37:45;;;;;;;;;;;;;;;19.34;48.39;101008.44;2067695;28;2042;-72
2024/03/14 01:38:46;;;;;;;;;;;;;;;19.35;48.32;101007.03;2066563;28;2135;-72
2024/03/14 01:39:49;;;;;;;;;;;;;;;19.33;48.23;101001.91;2066098;28;1961;-73
2024/03/14 01:40:51;;;;;;;;;;;;;;;19.34;48.19;101008.44;2067074;28;2058;-72
2024/03/14 01:41:52;;;;;;;;;;;;;;;19.34;48.37;101002.69;2068131;28;2039;-72
2024/03/14 01:42:54;;;;;;;;;;;;;;;19.33;48.26;101001.91;2067117;28;2028;-72
2024/03/14 01:43:58;;;;;;;;;;;;;;;19.33;48.31;101001.19;2067752;28;1948;-72
2024/03/14 01:45:01;;;;;;;;;;;;;;;19.33;48.26;100995.44;2066528;28;2000;-72
2024/03/14 01:46:02;;;;;;;;;;;;;;;19.33;48.35;101004.78;2066540;28;2008;-72
2024/03/14 01:47:05;;;;;;;;;;;;;;;19.33;48.27;101001.91;2066613;28;2096;-72
2024/03/14 01:48:07;;;;;;;;;;;;;;;19.33;48.21;101004.06;2065698;28;1998;-72
2024/03/14 01:49:08;;;;;;;;;;;;;;;19.33;48.26;101006.91;2066465;28;2091;-72
2024/03/14 01:50:11;;;;;;;;;;;;;;;19.32;48.22;101006.19;2067593;28;2023;-71
2024/03/14 01:51:12;;;;;;;;;;;;;;;19.33;48.27;100995.44;2066329;28;2271;-72
2024/03/14 01:52:13;;;;;;;;;;;;;;;19.33;48.24;101001.19;2065064;28;2032;-72
2024/03/14 01:53:15;;;;;;;;;;;;;;;19.32;48.33;100999.69;2067035;28;2052;-72
2024/03/14 01:54:16;;;;;;;;;;;;;;;19.33;48.08;100998.31;2066096;28;1996;-72
2024/03/14 01:55:19;;;;;;;;;;;;;;;19.32;48.37;100991.81;2065846;28;2004;-72
2024/03/14 01:56:21;;;;;;;;;;;;;;;19.32;48.36;100993.97;2066455;28;2004;-72
2024/03/14 01:57:25;;;;;;;;;;;;;;;19.32;48.31;100991.81;2067698;28;2031;-72
2024/03/14 01:58:26;;;;;;;;;;;;;;;19.31;48.25;100996.09;2066033;28;2075;-72
2024/03/14 01:59:28;;;;;;;;;;;;;;;19.31;48.26;100992.44;2066938;28;2080;-72
2024/03/14 02:00:34;;;;;;;;;;;;;;;19.32;48.22;100993.97;2065386;28;7604;-72
2024/03/14 02:01:36;;;;;;;;;;;;;;;19.32;48.23;100993.97;2067302;28;2508;-72
2024/03/14 02:02:37;;;;;;;;;;;;;;;19.32;48.22;100991.09;2066097;28;2052;-72
2024/03/14 02:03:40;;;;;;;;;;;;;;;19.31;48.31;100995.31;2066882;28;2151;-72
2024/03/14 02:04:53;;;;;;;;;;;;;;;19.31;48.32;100986.72;2066721;28;2358;-72
2024/03/14 02:06:01;;;;;;;;;;;;;;;19.30;48.32;100985.22;2066914;28;1999;-72
2024/03/14 02:07:09;;;;;;;;;;;;;;;19.31;48.22;100986.72;2066330;28;2055;-71
2024/03/14 02:08:10;;;;;;;;;;;;;;;19.30;48.37;100985.97;2067286;28;2481;-72
2024/03/14 02:09:13;;;;;;;;;;;;;;;19.31;48.28;100986.72;2067462;28;1977;-72
2024/03/14 02:10:14;;;;;;;;;;;;;;;19.30;48.23;100979.50;2066748;28;2377;-72
2024/03/14 02:11:16;;;;;;;;;;;;;;;19.30;48.30;100980.22;2066518;28;2065;-73
2024/03/14 02:12:18;;;;;;;;;;;;;;;19.31;48.33;100986.72;2064945;28;2037;-72
2024/03/14 02:13:20;;;;;;;;;;;;;;;19.31;48.30;100986.72;2066839;28;1977;-72
2024/03/14 02:14:21;;;;;;;;;;;;;;;19.30;48.29;100985.97;2065931;28;2113;-72
2024/03/14 02:15:23;;;;;;;;;;;;;;;19.30;48.24;100988.84;2067125;28;2051;-72
2024/03/14 02:16:25;;;;;;;;;;;;;;;19.30;48.24;100991.72;2065257;28;2061;-71
2024/03/14 02:17:26;;;;;;;;;;;;;;;19.31;48.29;100980.97;2057802;28;2006;-73
2024/03/14 02:18:28;;;;;;;;;;;;;;;19.30;48.36;100982.38;2065314;28;1989;-73
2024/03/14 02:19:30;;;;;;;;;;;;;;;19.30;48.29;100985.22;2065717;28;1997;-72
2024/03/14 02:20:31;;;;;;;;;;;;;;;19.29;48.34;100981.63;2065356;28;1957;-73
2024/03/14 02:21:33;;;;;;;;;;;;;;;19.30;48.40;100982.38;2065678;28;2040;-72
2024/03/14 02:22:34;;;;;;;;;;;;;;;19.29;48.36;100980.84;2066223;28;2024;-73
2024/03/14 02:23:35;;;;;;;;;;;;;;;19.29;48.27;100984.50;2064941;28;2012;-72
2024/03/14 02:24:37;;;;;;;;;;;;;;;19.30;48.40;100985.22;2067909;28;1981;-72
2024/03/14 02:25:38;;;;;;;;;;;;;;;19.29;48.31;100983.72;2066581;28;2023;-72
2024/03/14 02:26:40;;;;;;;;;;;;;;;19.29;48.33;100987.38;2065410;28;2004;-72
2024/03/14 02:27:41;;;;;;;;;;;;;;;19.29;48.28;100978.00;2066239;28;1950;-72
2024/03/14 02:28:43;;;;;;;;;;;;;;;19.29;48.38;100987.38;2065049;28;2206;-72
2024/03/14 02:29:44;;;;;;;;;;;;;;;19.27;48.25;100975.78;2064889;28;1987;-72
2024/03/14 02:30:46;;;;;;;;;;;;;;;19.28;48.35;100980.13;2063233;28;6244;-72
2024/03/14 02:31:51;;;;;;;;;;;;;;;19.29;48.31;100978.00;2063761;28;1953;-72
2024/03/14 02:32:52;;;;;;;;;;;;;;;19.29;48.20;100983.72;2066936;28;1978;-72
2024/03/14 02:33:54;;;;;;;;;;;;;;;19.29;48.45;100983.72;2065573;28;2246;-71
2024/03/14 02:34:55;;;;;;;;;;;;;;;19.28;48.39;100973.63;2066867;28;2017;-71
2024/03/14 02:35:57;;;;;;;;;;;;;;;19.28;48.37;100976.50;2066321;28;2012;-72
2024/03/14 02:36:58;;;;;;;;;;;;;;;19.27;48.40;100975.78;2066678;28;2101;-72
2024/03/14 02:38:00;;;;;;;;;;;;;;;19.28;48.36;100976.50;2064857;28;1981;-72
2024/03/14 02:39:01;;;;;;;;;;;;;;;19.27;48.33;100975.78;2065193;28;1961;-72
2024/03/14 02:40:05;;;;;;;;;;;;;;;19.27;48.38;100977.91;2066150;28;2016;-72
2024/03/14 02:41:08;;;;;;;;;;;;;;;19.27;48.40;100967.16;2066873;28;1985;-72
2024/03/14 02:42:11;;;;;;;;;;;;;;;19.27;48.40;100972.16;2064844;28;2045;-72
2024/03/14 02:43:12;;;;;;;;;;;;;;;19.26;48.31;100968.53;2067390;28;2010;-72
2024/03/14 02:44:15;;;;;;;;;;;;;;;19.27;48.42;100972.16;2064470;28;1985;-72
2024/03/14 02:45:20;;;;;;;;;;;;;;;19.27;48.53;100970.03;2066557;28;1965;-74
2024/03/14 02:46:21;;;;;;;;;;;;;;;19.26;48.41;100968.53;2065145;28;2012;-74
2024/03/14 02:47:23;;;;;;;;;;;;;;;19.27;48.42;100964.28;2065830;28;2163;-73
2024/03/14 02:48:25;;;;;;;;;;;;;;;19.25;48.41;100967.78;2065893;28;2205;-73
2024/03/14 02:49:27;;;;;;;;;;;;;;;19.25;48.38;100967.78;2066109;28;1968;-73
2024/03/14 02:50:28;;;;;;;;;;;;;;;19.28;48.33;100976.50;2068050;28;2040;-73
2024/03/14 02:51:30;;;;;;;;;;;;;;;19.27;48.44;100972.91;2067657;28;1957;-73
2024/03/14 02:52:32;;;;;;;;;;;;;;;19.26;48.50;100980.00;2067268;28;2020;-73
2024/03/14 02:53:34;;;;;;;;;;;;;;;19.25;48.49;100970.66;2066959;28;1996;-73
2024/03/14 02:54:35;;;;;;;;;;;;;;;19.26;48.37;100968.53;2066821;28;2358;-73
2024/03/14 02:55:37;;;;;;;;;;;;;;;19.25;48.47;100967.78;2066182;28;2068;-73
2024/03/14 02:56:38;;;;;;;;;;;;;;;19.24;48.48;100966.31;2065449;28;2065;-73
2024/03/14 02:57:40;;;;;;;;;;;;;;;19.25;48.49;100962.03;2066969;28;2098;-74
2024/03/14 02:58:42;;;;;;;;;;;;;;;19.25;48.39;100967.78;2067066;28;2361;-73
2024/03/14 02:59:43;;;;;;;;;;;;;;;19.25;48.50;100967.78;2066666;28;2029;-73
2024/03/14 03:00:45;;;;;;;;;;;;;;;19.25;48.49;100967.06;2065515;28;6182;-73
2024/03/14 03:01:50;;;;;;;;;;;;;;;19.27;48.43;100966.41;2067226;28;2013;-73
2024/03/14 03:02:52;;;;;;;;;;;;;;;19.25;48.38;100962.03;2065601;28;2004;-74
2024/03/14 03:03:53;;;;;;;;;;;;;;;19.26;48.42;100968.53;2065811;28;2147;-73
2024/03/14 03:04:56;;;;;;;;;;;;;;;19.26;48.42;100959.91;2065423;28;2164;-73
2024/03/14 03:05:57;;;;;;;;;;;;;;;19.24;48.44;100966.31;2067064;28;1961;-73
2024/03/14 03:07:05;;;;;;;;;;;;;;;19.27;48.38;100969.28;2065938;28;2012;-74
2024/03/14 03:08:07;;;;;;;;;;;;;;;19.25;48.43;100964.19;2065718;28;2004;-73
2024/03/14 03:09:09;;;;;;;;;;;;;;;19.24;48.47;100960.56;2065699;28;2008;-73
2024/03/14 03:10:11;;;;;;;;;;;;;;;19.25;48.54;100964.19;2066230;28;2049;-73
2024/03/14 03:11:13;;;;;;;;;;;;;;;19.25;48.43;100956.31;2066663;28;2049;-74
2024/03/14 03:12:14;;;;;;;;;;;;;;;19.25;48.50;100962.03;2066031;28;1990;-73
2024/03/14 03:13:17;;;;;;;;;;;;;;;19.25;48.48;100967.06;2066155;28;2037;-74
2024/03/14 03:14:21;;;;;;;;;;;;;;;19.24;48.49;100963.44;2065170;28;2016;-73
2024/03/14 03:15:22;;;;;;;;;;;;;;;19.24;48.51;100960.56;2066672;28;2122;-73
2024/03/14 03:16:24;;;;;;;;;;;;;;;19.25;48.42;100961.31;2067062;28;2161;-73
2024/03/14 03:17:26;;;;;;;;;;;;;;;19.24;48.35;100954.06;2065054;28;2039;-73
2024/03/14 03:18:27;;;;;;;;;;;;;;;19.24;48.38;100966.31;2065921;28;2125;-74
2024/03/14 03:19:29;;;;;;;;;;;;;;;19.25;48.51;100961.31;2067644;28;2282;-73
2024/03/14 03:20:30;;;;;;;;;;;;;;;19.24;48.50;100960.56;2067070;28;1950;-73
2024/03/14 03:21:31;;;;;;;;;;;;;;;19.23;48.47;100959.06;2066733;28;2025;-73
2024/03/14 03:23:04;;;;;;;;;;;;;;;19.24;48.47;100963.44;2064494;28;1988;-74
2024/03/14 03:23:54;;;;;;;;;;;;;;;19.24;48.49;100954.81;2066972;28;2088;-73
2024/03/14 03:24:56;;;;;;;;;;;;;;;19.23;48.56;100953.31;2064280;28;2019;-74
2024/03/14 03:25:57;;;;;;;;;;;;;;;19.22;48.52;100956.84;2065398;28;2111;-73
2024/03/14 03:27:03;;;;;;;;;;;;;;;19.24;48.47;100963.44;2066739;28;2070;-72
2024/03/14 03:28:10;;;;;;;;;;;;;;;19.23;48.49;100959.06;2066230;28;2007;-73
2024/03/14 03:29:13;;;;;;;;;;;;;;;19.24;48.53;100954.06;2065897;28;2060;-73
2024/03/14 03:30:14;;;;;;;;;;;;;;;19.23;48.47;100959.06;2064664;28;6920;-73
2024/03/14 03:31:15;;;;;;;;;;;;;;;19.23;48.55;100961.94;2065275;28;2004;-73
2024/03/14 03:32:18;;;;;;;;;;;;;;;19.23;48.53;100969.81;2065856;28;2012;-74
2024/03/14 03:33:20;;;;;;;;;;;;;;;19.23;48.53;100964.06;2066356;28;2004;-73
2024/03/14 03:34:23;;;;;;;;;;;;;;;19.22;48.40;100960.47;2066374;28;2408;-73
2024/03/14 03:35:25;;;;;;;;;;;;;;;19.23;48.52;100964.81;2074169;28;2076;-74
2024/03/14 03:36:29;;;;;;;;;;;;;;;19.23;48.62;100970.56;2064834;28;1968;-73
2024/03/14 03:37:30;;;;;;;;;;;;;;;19.21;48.55;100964.69;2067586;28;2123;-73
2024/03/14 03:38:36;;;;;;;;;;;;;;;19.21;48.49;100964.69;2064939;28;2275;-74
2024/03/14 03:39:39;;;;;;;;;;;;;;;19.21;48.53;100970.44;2064851;28;2486;-74
2024/03/14 03:40:40;;;;;;;;;;;;;;;19.21;48.57;100961.09;2065583;28;2079;-74
2024/03/14 03:41:42;;;;;;;;;;;;;;;19.21;48.47;100970.44;2066089;28;2118;-73
2024/03/14 03:42:45;;;;;;;;;;;;;;;19.20;48.49;100966.09;2067347;28;2283;-74
2024/03/14 03:43:47;;;;;;;;;;;;;;;19.20;48.48;100960.34;2066735;28;2152;-73
2024/03/14 03:44:49;;;;;;;;;;;;;;;19.21;48.58;100961.09;2065943;28;2139;-73
2024/03/14 03:45:50;;;;;;;;;;;;;;;19.19;48.63;100958.84;2065001;28;2139;-74
2024/03/14 03:46:52;;;;;;;;;;;;;;;19.21;48.59;100961.09;2066673;28;2055;-73
2024/03/14 03:47:54;;;;;;;;;;;;;;;19.20;48.63;100960.34;2065554;28;1984;-73
2024/03/14 03:48:57;;;;;;;;;;;;;;;19.21;48.58;100961.81;2066062;28;2021;-74
2024/03/14 03:49:58;;;;;;;;;;;;;;;19.22;48.55;100968.34;2066431;28;2140;-73
2024/03/14 03:51:00;;;;;;;;;;;;;;;19.23;48.43;100961.94;2065181;28;2236;-73
2024/03/14 03:52:02;;;;;;;;;;;;;;;19.23;48.54;100959.06;2064691;28;2091;-73
2024/03/14 03:53:03;;;;;;;;;;;;;;;19.24;48.50;100960.56;2063858;28;1993;-73
2024/03/14 03:54:05;;;;;;;;;;;;;;;19.25;48.59;100964.19;2065363;28;2153;-73
2024/03/14 03:55:07;;;;;;;;;;;;;;;19.25;48.35;100956.31;2065480;28;2214;-73
2024/03/14 03:56:08;;;;;;;;;;;;;;;19.27;48.35;100969.28;2066498;28;2068;-73
2024/03/14 03:57:10;;;;;;;;;;;;;;;19.27;48.31;100957.81;2064616;28;2353;-73
2024/03/14 03:58:11;;;;;;;;;;;;;;;19.28;48.05;100970.78;2066532;28;1988;-74
2024/03/14 03:59:14;;;;;;;;;;;;;;;19.28;48.21;100965.03;2065287;28;2044;-73
2024/03/14 04:00:41;;;;;;;;;;;;;;;19.28;48.31;100965.75;2063626;28;6190;-72
2024/03/14 04:01:43;;;;;;;;;;;;;;;19.31;48.40;100963.75;2064194;28;2030;-73
2024/03/14 04:02:46;;;;;;;;;;;;;;;19.31;48.22;100958.00;2065376;28;2009;-73
2024/03/14 04:03:48;;;;;;;;;;;;;;;19.30;48.14;100963.00;2066356;28;2024;-73
2024/03/14 04:04:49;;;;;;;;;;;;;;;19.31;48.22;100967.38;2064426;28;2093;-73
2024/03/14 04:05:51;;;;;;;;;;;;;;;19.31;48.18;100960.88;2065991;28;2012;-72
2024/03/14 04:06:52;;;;;;;;;;;;;;;19.33;48.22;100960.97;2066791;28;2138;-73
2024/03/14 04:07:55;;;;;;;;;;;;;;;19.31;48.22;100958.00;2065487;28;2071;-73
2024/03/14 04:08:56;;;;;;;;;;;;;;;19.32;48.17;100960.25;2066336;28;1995;-73
2024/03/14 04:09:57;;;;;;;;;;;;;;;19.33;48.20;100955.25;2066001;28;2056;-73
2024/03/14 04:10:59;;;;;;;;;;;;;;;19.32;48.26;100954.50;2065315;28;2069;-73
2024/03/14 04:12:01;;;;;;;;;;;;;;;19.32;48.20;100960.25;2065320;28;2034;-74
2024/03/14 04:13:04;;;;;;;;;;;;;;;19.33;48.15;100961.72;2065428;28;2001;-73
2024/03/14 04:14:09;;;;;;;;;;;;;;;19.33;48.23;100955.97;2064991;28;1971;-73
2024/03/14 04:15:10;;;;;;;;;;;;;;;19.33;48.08;100960.97;2065823;28;1960;-73
2024/03/14 04:16:15;;;;;;;;;;;;;;;19.33;48.17;100960.97;2067918;28;2032;-73
2024/03/14 04:17:18;;;;;;;;;;;;;;;19.34;48.21;100956.75;2066561;28;2076;-73
2024/03/14 04:18:20;;;;;;;;;;;;;;;19.34;48.13;100962.47;2064456;28;2008;-72
2024/03/14 04:19:21;;;;;;;;;;;;;;;19.33;48.18;100952.38;2065239;28;2040;-73
2024/03/14 04:20:27;;;;;;;;;;;;;;;19.32;48.17;100960.25;2063255;28;2165;-73
2024/03/14 04:21:28;;;;;;;;;;;;;;;19.33;48.30;100955.97;2065023;28;1992;-73
2024/03/14 04:22:30;;;;;;;;;;;;;;;19.33;48.24;100949.50;2066289;28;2004;-73
2024/03/14 04:23:31;;;;;;;;;;;;;;;19.34;48.28;100951.00;2065684;28;2036;-73
2024/03/14 04:24:33;;;;;;;;;;;;;;;19.33;48.33;100955.97;2065907;28;1988;-73
2024/03/14 04:25:34;;;;;;;;;;;;;;;19.34;48.30;100951.00;2066188;28;2020;-73
2024/03/14 04:26:35;;;;;;;;;;;;;;;19.34;48.30;100951.00;2065158;28;2133;-72
2024/03/14 04:27:38;;;;;;;;;;;;;;;19.36;48.20;100956.84;2065115;28;2016;-73
2024/03/14 04:28:39;;;;;;;;;;;;;;;19.36;48.31;100962.59;2074650;28;2064;-73
2024/03/14 04:29:41;;;;;;;;;;;;;;;19.36;48.23;100956.84;2075047;28;2027;-73
2024/03/14 04:30:42;;;;;;;;;;;;;;;19.36;48.08;100959.72;2063789;28;6457;-73
2024/03/14 04:31:43;;;;;;;;;;;;;;;19.39;48.29;100961.31;2065414;28;1996;-73
2024/03/14 04:32:45;;;;;;;;;;;;;;;19.37;48.32;100955.44;2066429;28;2068;-73
2024/03/14 04:33:47;;;;;;;;;;;;;;;19.37;48.29;100953.31;2066102;28;2055;-73
2024/03/14 04:34:48;;;;;;;;;;;;;;;19.39;48.46;100958.44;2066603;28;1996;-72
2024/03/14 04:35:50;;;;;;;;;;;;;;;19.40;48.40;100965.66;2065996;28;2424;-73
2024/03/14 04:36:51;;;;;;;;;;;;;;;19.41;48.53;100961.41;2068049;28;2085;-73
2024/03/14 04:37:53;;;;;;;;;;;;;;;19.41;48.38;100962.16;2067717;28;2114;-73
2024/03/14 04:38:55;;;;;;;;;;;;;;;19.42;48.41;100960.00;2067452;28;1993;-72
2024/03/14 04:39:56;;;;;;;;;;;;;;;19.41;48.39;100958.53;2066431;28;1970;-73
2024/03/14 04:40:59;;;;;;;;;;;;;;;19.41;48.45;100950.66;2066481;28;2049;-73
2024/03/14 04:42:00;;;;;;;;;;;;;;;19.41;48.41;100955.66;2068321;28;2317;-73
2024/03/14 04:43:04;;;;;;;;;;;;;;;19.41;48.45;100967.16;2065386;28;2045;-73
2024/03/14 04:44:07;;;;;;;;;;;;;;;19.41;48.36;100958.53;2067684;28;2001;-73
2024/03/14 04:45:12;;;;;;;;;;;;;;;19.41;48.52;100955.66;2068108;28;2052;-73
2024/03/14 04:46:14;;;;;;;;;;;;;;;19.41;48.43;100961.41;2066388;28;2013;-74
2024/03/14 04:47:16;;;;;;;;;;;;;;;19.41;48.44;100949.94;2066980;28;2212;-73
2024/03/14 04:48:18;;;;;;;;;;;;;;;19.41;48.46;100944.19;2066064;28;1992;-73
2024/03/14 04:49:19;;;;;;;;;;;;;;;19.41;48.39;100959.28;2066147;28;2318;-72
2024/03/14 04:50:21;;;;;;;;;;;;;;;19.41;48.46;100958.53;2065998;28;1996;-73
2024/03/14 04:51:23;;;;;;;;;;;;;;;19.40;48.41;100954.94;2067217;28;1985;-73
2024/03/14 04:52:25;;;;;;;;;;;;;;;19.42;48.42;100957.16;2068292;28;2151;-73
2024/03/14 04:53:26;;;;;;;;;;;;;;;19.40;48.34;100954.16;2067727;28;2049;-73
2024/03/14 04:54:28;;;;;;;;;;;;;;;19.41;48.41;100955.66;2068503;28;2066;-73
2024/03/14 04:55:29;;;;;;;;;;;;;;;19.41;48.37;100958.53;2067071;28;2091;-73
2024/03/14 04:56:30;;;;;;;;;;;;;;;19.41;48.42;100958.53;2066142;28;2088;-73
2024/03/14 04:57:33;;;;;;;;;;;;;;;19.41;48.35;100962.16;2065521;28;2037;-73
2024/03/14 04:58:37;;;;;;;;;;;;;;;19.41;48.40;100955.66;2066604;28;2334;-72
2024/03/14 04:59:40;;;;;;;;;;;;;;;19.40;48.34;100954.16;2064372;28;2086;-73
2024/03/14 05:00:41;;;;;;;;;;;;;;;19.41;48.34;100961.41;2068747;28;7088;-73
2024/03/14 05:01:43;;;;;;;;;;;;;;;19.42;48.35;100968.63;2067873;28;2043;-73
2024/03/14 05:02:44;;;;;;;;;;;;;;;19.41;48.39;100955.66;2067190;28;2091;-73
2024/03/14 05:03:46;;;;;;;;;;;;;;;19.41;48.44;100949.94;2067380;28;1981;-73
2024/03/14 05:04:48;;;;;;;;;;;;;;;19.42;48.43;100960.00;2067690;28;2040;-72
2024/03/14 05:05:51;;;;;;;;;;;;;;;19.41;48.33;100949.94;2067979;28;2393;-73
2024/03/14 05:06:54;;;;;;;;;;;;;;;19.43;48.19;100964.41;2068047;28;1977;-73
2024/03/14 05:07:55;;;;;;;;;;;;;;;19.42;48.37;100954.28;2068294;28;1993;-73
2024/03/14 05:08:56;;;;;;;;;;;;;;;19.42;48.67;100960.00;2068678;28;1981;-73
2024/03/14 05:09:58;;;;;;;;;;;;;;;19.42;48.47;100957.91;2068302;28;1992;-73
2024/03/14 05:10:59;;;;;;;;;;;;;;;19.43;48.40;100953.66;2067605;28;2044;-73
2024/03/14 05:12:01;;;;;;;;;;;;;;;19.43;48.35;100958.66;2068024;28;1964;-73
2024/03/14 05:13:02;;;;;;;;;;;;;;;19.45;48.42;100950.13;2068675;28;2064;-73
2024/03/14 05:14:06;;;;;;;;;;;;;;;19.46;48.55;100954.50;2066272;28;2107;-74
2024/03/14 05:15:07;;;;;;;;;;;;;;;19.46;48.44;100957.38;2067629;28;2153;-73
2024/03/14 05:16:11;;;;;;;;;;;;;;;19.46;48.58;100946.59;2065659;28;2078;-72
2024/03/14 05:17:13;;;;;;;;;;;;;;;19.46;48.73;100957.38;2065515;28;2088;-73
2024/03/14 05:18:14;;;;;;;;;;;;;;;19.47;48.63;100944.50;2066084;28;2026;-73
2024/03/14 05:19:16;;;;;;;;;;;;;;;19.46;48.44;100957.38;2067169;28;1898;-74
2024/03/14 05:20:17;;;;;;;;;;;;;;;19.47;48.62;100956.00;2068607;28;2001;-73
2024/03/14 05:21:19;;;;;;;;;;;;;;;19.48;48.57;100960.34;2066255;28;2064;-73
2024/03/14 05:22:22;;;;;;;;;;;;;;;19.47;48.61;100961.75;2067808;28;1977;-73
2024/03/14 05:23:24;;;;;;;;;;;;;;;19.46;48.62;100951.63;2068538;28;2012;-73
2024/03/14 05:24:25;;;;;;;;;;;;;;;19.46;48.60;100957.38;2067656;28;2037;-73